Time;durP1;ratioP1;P1;durP2;ratioP2;P2;SDS_P1;SDS_P2;PMS_P1;PMS_P2;Temp;Humidity;BMP_temperature;BMP_pressure;BME280_temperature;BME280_humidity;BME280_pressure;Samples;Min_cycle;Max_cycle;Signal;HPM_P1;HPM_P2
2023/04/11 00:00:26;;;;;;;23.48;17.30;;;8.90;82.20;;;;;;5052134;28;20496;-67
2023/04/11 00:02:53;;;;;;;24.25;18.35;;;8.90;81.90;;;;;;5051942;28;20029;-67
2023/04/11 00:05:19;;;;;;;24.42;18.23;;;8.90;81.80;;;;;;5052276;28;20025;-67
2023/04/11 00:07:45;;;;;;;25.00;18.55;;;8.90;82.20;;;;;;5051700;28;20033;-67
2023/04/11 00:10:11;;;;;;;24.80;18.10;;;8.90;82.40;;;;;;5052104;28;20146;-67
2023/04/11 00:12:37;;;;;;;22.98;17.40;;;8.90;82.40;;;;;;5052176;28;20029;-67
2023/04/11 00:15:03;;;;;;;25.13;19.17;;;8.90;82.40;;;;;;5051808;28;20453;-65
2023/04/11 00:17:30;;;;;;;25.00;17.45;;;8.90;82.40;;;;;;5052335;28;20095;-67
2023/04/11 00:19:57;;;;;;;28.10;19.63;;;8.80;82.70;;;;;;5051646;28;20462;-67
2023/04/11 00:22:23;;;;;;;22.67;17.60;;;8.80;82.60;;;;;;5054822;28;20080;-67
2023/04/11 00:24:49;;;;;;;26.25;18.55;;;8.80;82.70;;;;;;5055241;28;20033;-67
2023/04/11 00:27:15;;;;;;;22.92;17.92;;;8.70;83.40;;;;;;5055522;28;20079;-67
2023/04/11 00:29:40;;;;;;;23.83;17.60;;;8.70;83.40;;;;;;5054078;28;20060;-73
2023/04/11 00:32:06;;;;;;;24.38;18.00;;;8.70;83.50;;;;;;5055697;28;20081;-66
2023/04/11 00:34:33;;;;;;;24.15;18.33;;;8.70;84.40;;;;;;5055168;28;20029;-65
2023/04/11 00:36:58;;;;;;;26.77;19.52;;;8.70;84.50;;;;;;5035035;28;20112;-65
2023/04/11 00:39:25;;;;;;;24.65;18.38;;;8.60;84.70;;;;;;5035497;28;20504;-66
2023/04/11 00:41:51;;;;;;;26.00;17.88;;;8.60;84.60;;;;;;5046036;28;20027;-65
2023/04/11 00:44:17;;;;;;;26.30;18.98;;;8.60;84.70;;;;;;5054940;28;20053;-67
2023/04/11 00:46:44;;;;;;;25.45;17.88;;;8.60;84.70;;;;;;5053558;28;20029;-67
2023/04/11 00:49:10;;;;;;;26.38;18.40;;;8.60;84.70;;;;;;5054898;28;20060;-66
2023/04/11 00:51:36;;;;;;;24.42;18.38;;;8.60;85.00;;;;;;5054878;28;20029;-66
2023/04/11 00:54:02;;;;;;;25.83;17.92;;;8.50;84.90;;;;;;5054412;28;20033;-67
2023/04/11 00:56:28;;;;;;;23.88;18.00;;;8.50;85.20;;;;;;5054825;28;20028;-67
2023/04/11 00:58:54;;;;;;;24.25;17.77;;;8.50;85.30;;;;;;5054705;28;20524;-67
2023/04/11 01:01:22;;;;;;;26.55;18.30;;;8.50;85.40;;;;;;5055048;28;20044;-67
2023/04/11 01:03:48;;;;;;;25.88;18.15;;;8.50;85.30;;;;;;5054514;28;20424;-67
2023/04/11 01:06:17;;;;;;;26.35;18.27;;;8.40;85.60;;;;;;5054884;28;20025;-67
2023/04/11 01:08:45;;;;;;;23.85;17.42;;;8.40;86.10;;;;;;5054745;28;20029;-72
2023/04/11 01:11:12;;;;;;;29.40;19.23;;;8.30;86.40;;;;;;5054757;28;20025;-67
2023/04/11 01:13:41;;;;;;;24.35;18.75;;;8.30;86.70;;;;;;5054788;28;20028;-67
2023/04/11 01:16:08;;;;;;;26.05;18.55;;;8.20;87.20;;;;;;5054315;28;20081;-67
2023/04/11 01:18:35;;;;;;;27.38;18.80;;;8.20;87.60;;;;;;5054678;28;20293;-66
2023/04/11 01:21:01;;;;;;;26.40;18.92;;;8.10;87.70;;;;;;5054205;28;20108;-66
2023/04/11 01:23:27;;;;;;;25.88;18.98;;;8.10;87.80;;;;;;5054567;28;20048;-66
2023/04/11 01:25:53;;;;;;;27.67;18.42;;;8.00;87.90;;;;;;5054033;28;20029;-66
2023/04/11 01:28:19;;;;;;;28.17;18.52;;;8.10;88.20;;;;;;5054588;28;20021;-66
2023/04/11 01:30:45;;;;;;;28.67;19.63;;;8.00;88.40;;;;;;5054326;28;20080;-70
2023/04/11 01:33:14;;;;;;;28.65;19.23;;;8.00;88.30;;;;;;5053707;28;20029;-65
2023/04/11 01:35:40;;;;;;;33.13;19.35;;;8.00;88.70;;;;;;5054381;28;20386;-66
2023/04/11 01:38:06;;;;;;;28.20;19.83;;;7.90;89.00;;;;;;5053829;28;20029;-65
2023/04/11 01:40:33;;;;;;;25.90;18.63;;;7.80;89.40;;;;;;5054340;28;20032;-66
2023/04/11 01:43:00;;;;;;;27.67;19.52;;;7.80;90.10;;;;;;5053835;28;20107;-67
2023/04/11 01:45:26;;;;;;;28.75;19.10;;;7.80;90.20;;;;;;5054467;28;20053;-66
2023/04/11 01:47:55;;;;;;;26.13;19.00;;;7.80;90.40;;;;;;5053805;28;20125;-67
2023/04/11 01:50:21;;;;;;;25.60;18.30;;;7.80;90.40;;;;;;5054172;28;20099;-66
2023/04/11 01:52:48;;;;;;;27.98;18.55;;;7.80;90.40;;;;;;5053767;28;20032;-69
2023/04/11 01:55:13;;;;;;;26.50;19.20;;;7.70;90.60;;;;;;5054001;28;20021;-66
2023/04/11 01:57:39;;;;;;;27.55;18.33;;;7.70;90.90;;;;;;5053972;28;20033;-66
2023/04/11 02:00:07;;;;;;;28.50;18.80;;;7.70;91.30;;;;;;5053771;28;20449;-67
2023/04/11 02:02:32;;;;;;;26.10;18.77;;;7.60;91.50;;;;;;5053765;28;20365;-66
2023/04/11 02:04:58;;;;;;;29.63;20.55;;;7.60;91.60;;;;;;5053397;28;20029;-67
2023/04/11 02:07:23;;;;;;;27.35;18.73;;;7.60;91.80;;;;;;5053605;28;20036;-67
2023/04/11 02:09:49;;;;;;;24.95;18.23;;;7.60;91.80;;;;;;5053115;28;20535;-66
2023/04/11 02:12:15;;;;;;;27.05;18.48;;;7.60;91.60;;;;;;5053683;28;20025;-67
2023/04/11 02:14:44;;;;;;;27.55;19.00;;;7.60;91.80;;;;;;5053608;28;20071;-67
2023/04/11 02:17:11;;;;;;;27.73;19.52;;;7.50;92.00;;;;;;5052953;28;20075;-66
2023/04/11 02:19:39;;;;;;;26.80;18.63;;;7.50;92.10;;;;;;5053244;28;20389;-66
2023/04/11 02:22:07;;;;;;;27.00;18.35;;;7.50;92.10;;;;;;5053503;28;20033;-66
2023/04/11 02:24:33;;;;;;;22.02;16.85;;;7.50;92.50;;;;;;5053053;28;20396;-67
2023/04/11 02:27:00;;;;;;;25.75;18.83;;;7.50;92.50;;;;;;5053575;28;20108;-67
2023/04/11 02:29:27;;;;;;;25.00;18.73;;;7.50;92.30;;;;;;5053733;28;20033;-67
2023/04/11 02:31:53;;;;;;;26.95;18.50;;;7.60;92.20;;;;;;5053680;28;20055;-66
2023/04/11 02:34:18;;;;;;;26.08;17.98;;;7.60;92.30;;;;;;5052755;28;20450;-66
2023/04/11 02:36:44;;;;;;;27.33;20.27;;;7.60;92.30;;;;;;5052906;28;20082;-66
2023/04/11 02:39:11;;;;;;;27.70;19.80;;;7.60;92.20;;;;;;5052718;28;20029;-67
2023/04/11 02:41:41;;;;;;;27.50;19.00;;;7.50;92.20;;;;;;5053150;28;20066;-67
2023/04/11 02:44:09;;;;;;;27.75;18.60;;;7.50;92.30;;;;;;5052395;28;20061;-66
2023/04/11 02:46:35;;;;;;;29.35;20.40;;;7.40;92.50;;;;;;5052947;28;20492;-66
2023/04/11 02:49:00;;;;;;;26.02;18.80;;;7.40;92.70;;;;;;5052280;28;20029;-67
2023/04/11 02:51:27;;;;;;;28.40;19.38;;;7.30;92.60;;;;;;5052996;28;20025;-67
2023/04/11 02:53:53;;;;;;;24.23;18.38;;;7.30;93.00;;;;;;5052896;28;20453;-67
2023/04/11 02:56:19;;;;;;;24.50;18.25;;;7.30;92.90;;;;;;5052945;28;20029;-66
2023/04/11 02:58:45;;;;;;;25.92;18.90;;;7.30;93.10;;;;;;5053049;28;20063;-66
2023/04/11 03:01:13;;;;;;;28.58;19.38;;;7.30;93.30;;;;;;5052102;28;20742;-67
2023/04/11 03:03:39;;;;;;;29.52;19.23;;;7.30;93.30;;;;;;5052775;28;20087;-67
2023/04/11 03:06:06;;;;;;;26.45;18.75;;;7.30;93.40;;;;;;5052362;28;20068;-67
2023/04/11 03:08:32;;;;;;;27.83;19.30;;;7.30;93.60;;;;;;5053002;28;20028;-67
2023/04/11 03:10:58;;;;;;;25.48;18.02;;;7.30;93.50;;;;;;5051059;28;20032;-65
2023/04/11 03:13:24;;;;;;;28.25;20.27;;;7.30;93.40;;;;;;5052446;28;20381;-66
2023/04/11 03:15:50;;;;;;;25.45;18.60;;;7.20;93.60;;;;;;5052516;28;20108;-66
2023/04/11 03:18:16;;;;;;;24.98;18.75;;;7.20;94.10;;;;;;5051985;28;20492;-66
2023/04/11 03:20:43;;;;;;;27.52;19.95;;;7.20;93.90;;;;;;5052573;28;20040;-65
2023/04/11 03:23:08;;;;;;;27.65;19.25;;;7.20;93.80;;;;;;5051922;28;20025;-66
2023/04/11 03:25:36;;;;;;;30.23;19.20;;;7.20;93.80;;;;;;5052646;28;20025;-66
2023/04/11 03:28:03;;;;;;;27.65;19.23;;;7.20;94.20;;;;;;5051964;28;20089;-66
2023/04/11 03:30:28;;;;;;;25.38;18.60;;;7.20;94.10;;;;;;5052445;28;20509;-66
2023/04/11 03:32:54;;;;;;;30.40;19.98;;;7.20;94.10;;;;;;5052197;28;20174;-72
2023/04/11 03:35:20;;;;;;;28.65;19.35;;;7.20;94.20;;;;;;5052233;28;20021;-66
2023/04/11 03:37:46;;;;;;;29.30;19.05;;;7.20;94.30;;;;;;5052462;28;20040;-66
2023/04/11 03:40:12;;;;;;;30.92;19.98;;;7.20;94.40;;;;;;5051765;28;20021;-66
2023/04/11 03:42:38;;;;;;;30.13;19.02;;;7.20;94.50;;;;;;5052404;28;20523;-66
2023/04/11 03:45:04;;;;;;;28.08;20.30;;;7.20;94.70;;;;;;5051933;28;20045;-66
2023/04/11 03:47:29;;;;;;;27.48;19.63;;;7.20;94.70;;;;;;5052209;28;20065;-66
2023/04/11 03:49:55;;;;;;;28.88;19.63;;;7.10;94.80;;;;;;5051954;28;20477;-72
2023/04/11 03:52:21;;;;;;;28.40;20.00;;;7.10;94.80;;;;;;5052381;28;20025;-66
2023/04/11 03:54:46;;;;;;;28.00;20.15;;;7.10;94.90;;;;;;5051972;28;20036;-66
2023/04/11 03:57:12;;;;;;;27.45;19.45;;;7.10;95.10;;;;;;5054008;28;20082;-66
2023/04/11 03:59:38;;;;;;;26.20;18.75;;;7.10;95.40;;;;;;5056171;28;20052;-66
2023/04/11 04:02:03;;;;;;;24.92;18.52;;;7.10;95.30;;;;;;5055615;28;20029;-66
2023/04/11 04:04:31;;;;;;;35.83;20.25;;;7.10;95.40;;;;;;5055993;28;20052;-66
2023/04/11 04:06:56;;;;;;;29.77;19.60;;;7.20;95.30;;;;;;5055557;28;20037;-73
2023/04/11 04:09:23;;;;;;;27.50;18.88;;;7.20;95.40;;;;;;5056272;28;20033;-67
2023/04/11 04:11:49;;;;;;;27.55;19.55;;;7.20;95.50;;;;;;5055881;28;20033;-65
2023/04/11 04:14:15;;;;;;;29.48;18.83;;;7.20;95.30;;;;;;5055546;28;20032;-67
2023/04/11 04:16:40;;;;;;;29.80;19.23;;;7.20;95.20;;;;;;5055862;28;20037;-66
2023/04/11 04:19:06;;;;;;;30.55;19.13;;;7.20;95.50;;;;;;5055425;28;20029;-67
2023/04/11 04:21:32;;;;;;;28.90;18.95;;;7.20;95.40;;;;;;5056162;28;20071;-67
2023/04/11 04:24:02;;;;;;;27.58;19.48;;;7.20;95.40;;;;;;5055382;28;20025;-69
2023/04/11 04:26:29;;;;;;;25.73;18.92;;;7.20;95.50;;;;;;5055673;28;20419;-67
2023/04/11 04:28:56;;;;;;;27.25;19.10;;;7.20;95.30;;;;;;5055636;28;20059;-67
2023/04/11 04:31:24;;;;;;;25.20;18.77;;;7.20;95.20;;;;;;5055501;28;20029;-67
2023/04/11 04:33:50;;;;;;;29.50;19.52;;;7.20;95.10;;;;;;5055407;28;20036;-67
2023/04/11 04:36:16;;;;;;;28.92;20.17;;;7.30;95.20;;;;;;5054670;28;20058;-67
2023/04/11 04:38:43;;;;;;;28.80;19.45;;;7.20;95.40;;;;;;5055625;28;20444;-67
2023/04/11 04:41:13;;;;;;;34.38;19.50;;;7.20;95.50;;;;;;5056019;28;20021;-67
2023/04/11 04:43:40;;;;;;;29.27;19.85;;;7.20;95.50;;;;;;5056058;28;20053;-67
2023/04/11 04:46:06;;;;;;;28.40;19.38;;;7.20;95.60;;;;;;5055251;28;20064;-67
2023/04/11 04:48:32;;;;;;;31.20;18.85;;;7.30;95.60;;;;;;5055139;28;20053;-67
2023/04/11 04:50:57;;;;;;;27.48;18.33;;;7.30;95.60;;;;;;5055222;28;20029;-67
2023/04/11 04:53:23;;;;;;;29.63;19.67;;;7.20;95.50;;;;;;5054850;28;20055;-67
2023/04/11 04:55:49;;;;;;;29.40;19.08;;;7.30;95.80;;;;;;5055106;28;20096;-65
2023/04/11 04:58:14;;;;;;;32.55;19.38;;;7.30;95.80;;;;;;5054780;28;20542;-66
2023/04/11 05:00:40;;;;;;;37.88;22.92;;;7.30;96.10;;;;;;5055034;28;20025;-67
2023/04/11 05:03:07;;;;;;;27.58;18.85;;;7.30;96.10;;;;;;5054487;28;20052;-67
2023/04/11 05:05:33;;;;;;;32.75;18.50;;;7.20;96.20;;;;;;5054891;28;20103;-66
2023/04/11 05:07:59;;;;;;;30.40;20.15;;;7.30;96.30;;;;;;5053629;28;20116;-66
2023/04/11 05:10:25;;;;;;;28.38;17.92;;;7.20;96.50;;;;;;5054728;28;20036;-66
2023/04/11 05:12:52;;;;;;;28.65;19.63;;;7.20;96.50;;;;;;5054895;28;20032;-66
2023/04/11 05:15:20;;;;;;;33.67;18.77;;;7.30;96.50;;;;;;5054233;28;20033;-66
2023/04/11 05:17:45;;;;;;;30.00;18.40;;;7.30;96.40;;;;;;5054767;28;20025;-66
2023/04/11 05:20:12;;;;;;;30.45;20.23;;;7.20;96.20;;;;;;5054336;28;20028;-66
2023/04/11 05:22:38;;;;;;;26.73;17.83;;;7.20;96.30;;;;;;5054573;28;20091;-66
2023/04/11 05:25:04;;;;;;;26.67;17.88;;;7.30;96.50;;;;;;5054278;28;20067;-66
2023/04/11 05:27:30;;;;;;;29.02;18.05;;;7.30;96.50;;;;;;5054457;28;20106;-66
2023/04/11 05:29:55;;;;;;;32.40;17.95;;;7.30;96.10;;;;;;5054218;28;20473;-66
2023/04/11 05:32:21;;;;;;;28.92;17.30;;;7.20;96.10;;;;;;5053789;28;20100;-67
2023/04/11 05:34:54;;;;;;;34.63;18.35;;;7.20;95.80;;;;;;5054498;28;20178;-66
2023/04/11 05:37:20;;;;;;;25.85;17.48;;;7.20;95.70;;;;;;5053969;28;20056;-65
2023/04/11 05:39:46;;;;;;;28.77;18.20;;;7.20;95.60;;;;;;5054039;28;20458;-66
2023/04/11 05:42:12;;;;;;;30.95;17.73;;;7.20;95.70;;;;;;5053844;28;20108;-67
2023/04/11 05:44:39;;;;;;;25.00;17.35;;;7.20;95.60;;;;;;5054281;28;20051;-67
2023/04/11 05:47:05;;;;;;;27.35;17.77;;;7.20;95.60;;;;;;5053817;28;20033;-67
2023/04/11 05:49:30;;;;;;;28.50;18.88;;;7.20;95.80;;;;;;5054360;28;20461;-66
2023/04/11 05:51:56;;;;;;;27.67;18.02;;;7.20;95.90;;;;;;5054421;28;20501;-67
2023/04/11 05:54:48;;;;;;;29.88;17.65;;;7.20;96.30;;;;;;5053614;28;20021;-66
2023/04/11 05:57:13;;;;;;;26.15;17.55;;;7.30;96.40;;;;;;5051614;28;20440;-66
2023/04/11 05:59:39;;;;;;;30.83;18.83;;;7.40;96.30;;;;;;5053879;28;20029;-66
2023/04/11 06:02:05;;;;;;;27.65;18.35;;;7.40;95.90;;;;;;5053562;28;20111;-72
2023/04/11 06:04:31;;;;;;;22.20;16.30;;;7.50;96.00;;;;;;5054188;28;20082;-66
2023/04/11 06:06:56;;;;;;;28.05;17.83;;;7.50;95.70;;;;;;5053635;28;20029;-66
2023/04/11 06:09:22;;;;;;;30.77;17.30;;;7.60;95.50;;;;;;5053393;28;20072;-67
2023/04/11 06:11:48;;;;;;;32.38;18.65;;;7.60;95.30;;;;;;5053558;28;20021;-67
2023/04/11 06:14:13;;;;;;;28.52;18.55;;;7.70;95.20;;;;;;5053184;28;20025;-67
2023/04/11 06:16:40;;;;;;;30.52;18.13;;;7.70;94.90;;;;;;5053589;28;20036;-67
2023/04/11 06:19:05;;;;;;;24.67;15.95;;;7.70;94.90;;;;;;5052998;28;20353;-66
2023/04/11 06:21:31;;;;;;;27.92;17.52;;;7.80;95.10;;;;;;5053111;28;20025;-67
2023/04/11 06:24:04;;;;;;;29.00;18.15;;;7.80;94.20;;;;;;5053441;28;20511;-66
2023/04/11 06:26:30;;;;;;;28.20;17.90;;;7.90;94.50;;;;;;5052920;28;20028;-66
2023/04/11 06:28:56;;;;;;;27.48;17.48;;;7.90;94.50;;;;;;5053227;28;20029;-67
2023/04/11 06:31:21;;;;;;;34.97;17.00;;;8.00;94.50;;;;;;5052528;28;20462;-66
2023/04/11 06:33:47;;;;;;;34.10;18.25;;;8.10;94.50;;;;;;5053316;28;20029;-66
2023/04/11 06:36:12;;;;;;;25.48;16.50;;;8.10;94.50;;;;;;5052819;28;20159;-67
2023/04/11 06:38:39;;;;;;;33.67;18.08;;;8.20;94.30;;;;;;5052038;28;20533;-66
2023/04/11 06:41:05;;;;;;;28.55;18.05;;;8.20;93.70;;;;;;5053070;28;20036;-66
2023/04/11 06:43:31;;;;;;;28.95;16.95;;;8.30;93.60;;;;;;5052047;28;20056;-66
2023/04/11 06:45:57;;;;;;;34.60;18.17;;;8.40;93.50;;;;;;5050811;28;20024;-66
2023/04/11 06:48:23;;;;;;;24.58;17.17;;;8.50;93.40;;;;;;5052517;28;20041;-66
2023/04/11 06:50:49;;;;;;;41.15;18.73;;;8.60;93.50;;;;;;5052650;28;20025;-66
2023/04/11 06:53:14;;;;;;;37.67;18.70;;;8.70;92.90;;;;;;5051731;28;20474;-66
2023/04/11 06:55:40;;;;;;;27.55;18.33;;;8.90;92.80;;;;;;5052741;28;20021;-66
2023/04/11 06:58:05;;;;;;;26.65;18.02;;;9.10;92.70;;;;;;5052710;28;20031;-66
2023/04/11 07:00:31;;;;;;;26.10;16.55;;;9.30;92.10;;;;;;5052275;28;20029;-66
2023/04/11 07:02:58;;;;;;;30.17;17.88;;;9.50;91.40;;;;;;5052774;28;20462;-66
2023/04/11 07:05:25;;;;;;;27.85;16.83;;;9.80;90.50;;;;;;5052292;28;20029;-66
2023/04/11 07:07:52;;;;;;;28.20;17.75;;;10.20;90.00;;;;;;5052676;28;20033;-65
2023/04/11 07:10:18;;;;;;;28.23;17.15;;;10.30;87.20;;;;;;5052212;28;20041;-66
2023/04/11 07:12:44;;;;;;;26.27;16.25;;;10.40;85.90;;;;;;5052748;28;20039;-66
2023/04/11 07:15:10;;;;;;;32.92;18.88;;;10.80;86.00;;;;;;5052694;28;20029;-66
2023/04/11 07:17:35;;;;;;;27.75;17.50;;;11.00;82.60;;;;;;5052796;28;20029;-66
2023/04/11 07:20:01;;;;;;;28.30;17.73;;;10.80;81.20;;;;;;5052312;28;20028;-67
2023/04/11 07:22:28;;;;;;;27.20;18.17;;;10.90;81.50;;;;;;5052297;28;20025;-67
2023/04/11 07:24:56;;;;;;;32.05;17.90;;;10.90;80.40;;;;;;5052611;28;20032;-66
2023/04/11 07:27:23;;;;;;;25.73;17.80;;;11.00;81.30;;;;;;5052091;28;20432;-64
2023/04/11 07:29:49;;;;;;;25.15;18.13;;;11.40;80.90;;;;;;5052483;28;20417;-66
2023/04/11 07:32:14;;;;;;;24.45;17.55;;;11.80;77.90;;;;;;5053686;28;20051;-67
2023/04/11 07:34:40;;;;;;;32.70;17.17;;;12.00;77.20;;;;;;5056394;28;20474;-67
2023/04/11 07:37:06;;;;;;;27.40;17.90;;;12.20;76.10;;;;;;5055418;28;20052;-66
2023/04/11 07:39:32;;;;;;;27.58;17.60;;;12.10;74.20;;;;;;5056203;28;20280;-66
2023/04/11 07:41:57;;;;;;;26.35;18.38;;;12.00;73.00;;;;;;5056548;28;20075;-67
2023/04/11 07:44:23;;;;;;;27.90;17.80;;;11.90;73.60;;;;;;5056084;28;20106;-66
2023/04/11 07:46:49;;;;;;;27.75;16.88;;;11.80;73.60;;;;;;5056030;28;20074;-65
2023/04/11 07:49:15;;;;;;;23.30;17.10;;;11.70;74.20;;;;;;5056006;28;20041;-67
2023/04/11 07:51:40;;;;;;;27.73;17.38;;;11.60;74.50;;;;;;5056627;28;20381;-67
2023/04/11 07:54:08;;;;;;;33.92;17.90;;;11.50;75.20;;;;;;5056285;28;20032;-66
2023/04/11 07:56:34;;;;;;;27.25;17.10;;;11.50;74.90;;;;;;5055838;28;20113;-66
2023/04/11 07:59:00;;;;;;;28.40;17.48;;;11.50;75.50;;;;;;5055871;28;20053;-66
2023/04/11 08:01:25;;;;;;;24.85;16.30;;;11.40;75.30;;;;;;5055720;28;20033;-66
2023/04/11 08:03:55;;;;;;;25.98;16.80;;;11.40;74.70;;;;;;5056084;28;20024;-66
2023/04/11 08:06:21;;;;;;;26.60;15.55;;;11.30;75.60;;;;;;5055494;28;20049;-67
2023/04/11 08:08:48;;;;;;;29.10;16.75;;;11.20;76.00;;;;;;5055995;28;20037;-66
2023/04/11 08:11:14;;;;;;;21.08;16.17;;;11.20;76.20;;;;;;5055953;28;20036;-66
2023/04/11 08:13:40;;;;;;;22.30;16.65;;;11.20;77.40;;;;;;5055853;28;20029;-66
2023/04/11 08:16:08;;;;;;;24.73;16.40;;;11.20;77.80;;;;;;5055845;28;20033;-66
2023/04/11 08:18:35;;;;;;;24.15;16.48;;;11.20;78.90;;;;;;5055518;28;20021;-66
2023/04/11 08:21:01;;;;;;;27.42;16.38;;;11.20;78.00;;;;;;5055770;28;20021;-66
2023/04/11 08:23:30;;;;;;;28.02;17.50;;;11.20;77.60;;;;;;5055067;28;20029;-66
2023/04/11 08:25:56;;;;;;;24.77;16.63;;;11.20;78.00;;;;;;5055784;28;20458;-66
2023/04/11 08:28:22;;;;;;;20.35;15.52;;;11.20;77.60;;;;;;5055228;28;20032;-66
2023/04/11 08:30:51;;;;;;;24.98;16.40;;;11.20;77.70;;;;;;5055681;28;20465;-66
2023/04/11 08:33:18;;;;;;;19.58;14.98;;;11.30;78.30;;;;;;5055043;28;20033;-67
2023/04/11 08:35:44;;;;;;;26.58;16.98;;;11.30;77.40;;;;;;5055625;28;20070;-65
2023/04/11 08:38:10;;;;;;;22.52;15.30;;;11.30;77.60;;;;;;5055394;28;20111;-66
2023/04/11 08:40:35;;;;;;;23.08;15.77;;;11.40;78.30;;;;;;5054778;28;20072;-69
2023/04/11 08:43:01;;;;;;;27.58;15.98;;;11.40;78.30;;;;;;5055104;28;20032;-66
2023/04/11 08:45:27;;;;;;;22.63;16.00;;;11.50;78.40;;;;;;5055350;28;20398;-67
2023/04/11 08:47:53;;;;;;;24.00;17.10;;;11.50;77.80;;;;;;5056205;28;20108;-67
2023/04/11 08:50:19;;;;;;;24.08;15.85;;;11.50;77.40;;;;;;5055115;28;20070;-67
2023/04/11 08:52:46;;;;;;;22.80;17.13;;;11.50;76.90;;;;;;5056014;28;20029;-66
2023/04/11 08:55:12;;;;;;;27.90;15.88;;;11.60;76.40;;;;;;5055439;28;20040;-65
2023/04/11 08:57:38;;;;;;;28.50;17.25;;;11.60;76.40;;;;;;5054821;28;20063;-67
2023/04/11 09:00:12;;;;;;;22.35;16.92;;;11.60;76.40;;;;;;5055652;28;20036;-67
2023/04/11 09:03:01;;;;;;;22.85;15.65;;;11.70;75.80;;;;;;5054677;28;20025;-67
2023/04/11 09:05:34;;;;;;;22.23;15.63;;;11.70;75.30;;;;;;5054496;28;20025;-66
2023/04/11 09:08:02;;;;;;;21.83;15.52;;;11.80;75.60;;;;;;5054897;28;20039;-66
2023/04/11 09:10:27;;;;;;;25.83;15.55;;;11.80;75.10;;;;;;5054883;28;20043;-67
2023/04/11 09:12:54;;;;;;;21.05;14.70;;;11.80;75.20;;;;;;5055198;28;20100;-67
2023/04/11 09:15:26;;;;;;;20.60;13.43;;;11.90;75.00;;;;;;5054788;28;20039;-66
2023/04/11 09:17:53;;;;;;;23.75;14.13;;;12.00;74.40;;;;;;5055243;28;20108;-66
2023/04/11 09:20:24;;;;;;;20.30;13.65;;;12.00;74.30;;;;;;5055425;28;20087;-72
2023/04/11 09:22:51;;;;;;;19.48;12.93;;;12.10;74.90;;;;;;5055264;28;20043;-66
2023/04/11 09:25:18;;;;;;;16.95;11.35;;;12.30;75.30;;;;;;5055219;28;20031;-66
2023/04/11 09:27:43;;;;;;;17.80;11.10;;;12.30;75.40;;;;;;5054633;28;20087;-65
2023/04/11 09:30:22;;;;;;;15.45;10.02;;;12.50;74.70;;;;;;5055023;28;20028;-66
2023/04/11 09:32:51;;;;;;;17.30;9.80;;;12.60;74.50;;;;;;5054747;28;20104;-66
2023/04/11 09:35:21;;;;;;;15.68;9.40;;;12.60;74.50;;;;;;5054371;28;20032;-67
2023/04/11 09:37:55;;;;;;;9.40;7.15;;;12.70;74.90;;;;;;5054323;28;20480;-66
2023/04/11 09:40:23;;;;;;;7.88;4.53;;;12.80;75.80;;;;;;5052710;28;20029;-68
2023/04/11 09:42:56;;;;;;;6.90;3.58;;;12.90;79.40;;;;;;5054252;28;20032;-67
2023/04/11 09:45:23;;;;;;;3.28;2.47;;;12.90;81.80;;;;;;5054035;28;20405;-66
2023/04/11 09:47:51;;;;;;;5.28;2.55;;;13.00;86.50;;;;;;5054036;28;20065;-66
2023/04/11 09:50:18;;;;;;;5.78;2.90;;;13.00;89.30;;;;;;5052815;28;20394;-66
2023/04/11 09:52:45;;;;;;;2.83;2.28;;;13.00;90.50;;;;;;5053782;28;20025;-67
2023/04/11 09:55:17;;;;;;;3.42;2.20;;;13.00;91.30;;;;;;5053406;28;20037;-66
2023/04/11 09:57:48;;;;;;;5.40;2.20;;;13.00;91.50;;;;;;5053415;28;20048;-66
2023/04/11 10:00:18;;;;;;;4.80;2.05;;;12.90;92.40;;;;;;5054058;28;20033;-66
2023/04/11 10:02:45;;;;;;;3.85;2.70;;;12.90;93.10;;;;;;5053379;28;20029;-66
2023/04/11 10:05:12;;;;;;;4.68;2.50;;;12.80;94.20;;;;;;5053885;28;20350;-66
2023/04/11 10:08:03;;;;;;;2.92;2.35;;;12.80;94.50;;;;;;5053385;28;20028;-66
2023/04/11 10:10:29;;;;;;;3.70;2.53;;;12.70;94.50;;;;;;5053921;28;20032;-67
2023/04/11 10:12:54;;;;;;;4.78;2.45;;;12.70;94.80;;;;;;5053817;28;20119;-66
2023/04/11 10:15:21;;;;;;;4.22;2.30;;;12.70;95.30;;;;;;5053606;28;20031;-66
2023/04/11 10:18:19;;;;;;;2.95;2.15;;;12.70;95.50;;;;;;5053224;28;20083;-66
2023/04/11 10:20:49;;;;;;;10.63;7.72;;;12.70;96.00;;;;;;5030674;28;20264;-67
2023/04/11 10:23:15;;;;;;;12.32;9.77;;;12.60;95.90;;;;;;5053515;28;20448;-66
2023/04/11 10:25:49;;;;;;;14.07;9.07;;;12.60;95.20;;;;;;5053116;28;20035;-66
2023/04/11 10:28:30;;;;;;;14.45;10.00;;;12.60;95.00;;;;;;5053310;28;20064;-66
2023/04/11 10:31:07;;;;;;;17.00;9.05;;;12.60;95.30;;;;;;5053258;28;20083;-67
2023/04/11 10:33:35;;;;;;;16.50;8.25;;;12.50;95.70;;;;;;5053017;28;20385;-67
2023/04/11 10:36:11;;;;;;;13.75;8.20;;;12.60;96.40;;;;;;5053244;28;20147;-67
2023/04/11 10:38:42;;;;;;;10.80;9.23;;;12.60;97.00;;;;;;5052818;28;20025;-67
2023/04/11 10:41:16;;;;;;;18.02;11.57;;;12.60;97.40;;;;;;5052597;28;20457;-65
2023/04/11 10:43:42;;;;;;;15.18;10.10;;;12.60;97.30;;;;;;5052170;28;20128;-66
2023/04/11 10:46:24;;;;;;;14.80;10.88;;;12.60;96.90;;;;;;5053184;28;20108;-66
2023/04/11 10:48:58;;;;;;;17.17;11.95;;;12.60;97.40;;;;;;5052690;28;20334;-66
2023/04/11 10:51:27;;;;;;;28.90;16.05;;;12.60;97.80;;;;;;5052336;28;20073;-66
2023/04/11 10:53:54;;;;;;;26.10;15.60;;;12.60;97.60;;;;;;5052790;28;20082;-66
2023/04/11 10:56:38;;;;;;;23.98;14.68;;;12.60;97.70;;;;;;5053010;28;20104;-65
2023/04/11 10:59:04;;;;;;;23.27;14.07;;;12.60;97.60;;;;;;5052717;28;20056;-66
2023/04/11 11:01:30;;;;;;;23.90;14.77;;;12.60;97.60;;;;;;5052100;28;20110;-65
2023/04/11 11:03:56;;;;;;;29.02;17.00;;;12.50;97.40;;;;;;5052869;28;20021;-66
2023/04/11 11:06:23;;;;;;;23.88;14.85;;;12.50;97.50;;;;;;5051779;28;20033;-66
2023/04/11 11:08:48;;;;;;;24.13;16.08;;;12.50;97.20;;;;;;5051101;28;20039;-66
2023/04/11 11:11:15;;;;;;;21.77;14.38;;;12.50;97.30;;;;;;5052809;28;20032;-66
2023/04/11 11:13:42;;;;;;;18.10;13.65;;;12.50;97.70;;;;;;5052290;28;20055;-66
2023/04/11 11:16:09;;;;;;;21.35;14.18;;;12.50;97.80;;;;;;5052823;28;20029;-65
2023/04/11 11:18:36;;;;;;;24.67;14.10;;;12.50;98.00;;;;;;5052316;28;20068;-65
2023/04/11 11:21:01;;;;;;;20.30;13.38;;;12.60;98.20;;;;;;5052580;28;20036;-67
2023/04/11 11:23:27;;;;;;;21.92;13.70;;;12.60;98.40;;;;;;5052377;28;20389;-66
2023/04/11 11:25:54;;;;;;;21.15;13.70;;;12.60;98.40;;;;;;5052738;28;20026;-66
2023/04/11 11:28:20;;;;;;;23.92;14.55;;;12.60;98.20;;;;;;5052554;28;20032;-66
2023/04/11 11:30:50;;;;;;;17.17;12.57;;;12.60;98.30;;;;;;5052261;28;20033;-67
2023/04/11 11:33:21;;;;;;;18.75;13.40;;;12.60;98.60;;;;;;5052487;28;20021;-66
2023/04/11 11:35:52;;;;;;;19.27;12.90;;;12.60;98.80;;;;;;5052156;28;20025;-67
2023/04/11 11:38:19;;;;;;;19.80;13.30;;;12.60;99.10;;;;;;5052491;28;20041;-67
2023/04/11 11:40:46;;;;;;;19.10;13.65;;;12.60;99.40;;;;;;5051978;28;20036;-65
2023/04/11 11:43:12;;;;;;;18.50;13.35;;;12.60;99.50;;;;;;5052214;28;20142;-67
2023/04/11 11:45:37;;;;;;;21.23;13.57;;;12.60;99.50;;;;;;5050752;28;20108;-66
2023/04/11 11:48:03;;;;;;;17.95;13.85;;;12.60;99.70;;;;;;5052254;28;20029;-66
2023/04/11 11:50:30;;;;;;;21.90;15.00;;;12.60;99.90;;;;;;5052396;28;20398;-66
2023/04/11 11:53:15;;;;;;;17.67;13.73;;;12.60;99.90;;;;;;5052407;28;20025;-66
2023/04/11 11:55:42;;;;;;;22.63;14.57;;;12.60;99.90;;;;;;5052120;28;20025;-66
2023/04/11 11:58:07;;;;;;;20.52;12.95;;;12.60;99.90;;;;;;5052032;28;20370;-66
2023/04/11 12:00:38;;;;;;;21.92;14.13;;;12.60;99.90;;;;;;5052025;28;20029;-67
2023/04/11 12:03:05;;;;;;;20.63;14.70;;;12.60;99.90;;;;;;5052371;28;20029;-66
2023/04/11 12:05:32;;;;;;;24.13;15.55;;;12.60;99.90;;;;;;5051949;28;20584;-66
2023/04/11 12:08:03;;;;;;;19.83;14.82;;;12.70;99.90;;;;;;5052130;28;20029;-66
2023/04/11 12:10:55;;;;;;;26.65;14.68;;;12.60;99.90;;;;;;5034921;28;20025;-66
2023/04/11 12:13:24;;;;;;;20.80;14.63;;;12.60;99.90;;;;;;5049864;28;20385;-66
2023/04/11 12:15:55;;;;;;;19.20;14.07;;;12.60;99.90;;;;;;5051748;28;20017;-66
2023/04/11 12:18:21;;;;;;;16.98;11.30;;;12.70;99.90;;;;;;5054593;28;20029;-66
2023/04/11 12:20:48;;;;;;;18.13;10.85;;;12.70;99.90;;;;;;5055372;28;20060;-66
2023/04/11 12:23:13;;;;;;;16.23;9.52;;;12.80;99.90;;;;;;5055803;28;20025;-66
2023/04/11 12:25:39;;;;;;;11.73;8.90;;;12.80;99.90;;;;;;5055343;28;20031;-65
2023/04/11 12:28:06;;;;;;;12.85;8.85;;;12.90;99.90;;;;;;5055689;28;20068;-65
2023/04/11 12:30:31;;;;;;;13.23;8.63;;;13.00;99.90;;;;;;5055562;28;20095;-66
2023/04/11 12:32:57;;;;;;;9.38;7.38;;;13.00;99.90;;;;;;5055221;28;20041;-66